sensor_id;sensor_type;location;lat;lon;timestamp;pressure;altitude;pressure_sealevel;temperature;humidity
33795;BME280;51430;52.242;21.118;2022-10-31T00:01:34;100690.40;;;9.91;97.09
33795;BME280;51430;52.242;21.118;2022-10-31T00:04:03;100690.15;;;9.88;96.63
33795;BME280;51430;52.242;21.118;2022-10-31T00:06:32;100688.71;;;9.85;96.38
33795;BME280;51430;52.242;21.118;2022-10-31T00:09:02;100686.70;;;9.84;96.16
33795;BME280;51430;52.242;21.118;2022-10-31T00:11:31;100685.44;;;9.85;96.15
33795;BME280;51430;52.242;21.118;2022-10-31T00:13:59;100687.73;;;9.87;96.35
33795;BME280;51430;52.242;21.118;2022-10-31T00:16:28;100690.92;;;9.83;96.47
33795;BME280;51430;52.242;21.118;2022-10-31T00:18:59;100693.11;;;9.80;96.44
33795;BME280;51430;52.242;21.118;2022-10-31T00:21:29;100692.64;;;9.76;96.40
33795;BME280;51430;52.242;21.118;2022-10-31T00:23:59;100694.48;;;9.72;96.57
33795;BME280;51430;52.242;21.118;2022-10-31T00:26:29;100692.16;;;9.70;96.75
33795;BME280;51430;52.242;21.118;2022-10-31T00:28:58;100693.73;;;9.68;96.86
33795;BME280;51430;52.242;21.118;2022-10-31T00:31:27;100695.91;;;9.64;96.91
33795;BME280;51430;52.242;21.118;2022-10-31T00:33:57;100697.45;;;9.59;96.72
33795;BME280;51430;52.242;21.118;2022-10-31T00:36:26;100699.06;;;9.56;96.75
33795;BME280;51430;52.242;21.118;2022-10-31T00:38:55;100697.55;;;9.55;97.13
33795;BME280;51430;52.242;21.118;2022-10-31T00:41:23;100698.14;;;9.54;97.57
33795;BME280;51430;52.242;21.118;2022-10-31T00:43:54;100694.60;;;9.52;98.13
33795;BME280;51430;52.242;21.118;2022-10-31T00:46:22;100701.45;;;9.52;98.65
33795;BME280;51430;52.242;21.118;2022-10-31T00:48:50;100702.20;;;9.51;98.85
33795;BME280;51430;52.242;21.118;2022-10-31T00:51:18;100703.47;;;9.42;98.46
33795;BME280;51430;52.242;21.118;2022-10-31T00:53:46;100704.80;;;9.38;98.33
33795;BME280;51430;52.242;21.118;2022-10-31T00:56:15;100704.33;;;9.37;98.23
33795;BME280;51430;52.242;21.118;2022-10-31T00:58:44;100704.77;;;9.36;98.14
33795;BME280;51430;52.242;21.118;2022-10-31T01:01:12;100709.35;;;9.35;98.04
33795;BME280;51430;52.242;21.118;2022-10-31T01:03:40;100712.59;;;9.33;97.79
33795;BME280;51430;52.242;21.118;2022-10-31T01:06:10;100708.89;;;9.31;97.86
33795;BME280;51430;52.242;21.118;2022-10-31T01:08:40;100712.37;;;9.28;97.48
33795;BME280;51430;52.242;21.118;2022-10-31T01:11:13;100709.41;;;9.29;97.52
33795;BME280;51430;52.242;21.118;2022-10-31T01:13:41;100710.21;;;9.27;97.43
33795;BME280;51430;52.242;21.118;2022-10-31T01:16:12;100713.11;;;9.25;97.29
33795;BME280;51430;52.242;21.118;2022-10-31T01:18:40;100711.64;;;9.27;97.28
33795;BME280;51430;52.242;21.118;2022-10-31T01:21:19;100713.86;;;9.24;97.44
33795;BME280;51430;52.242;21.118;2022-10-31T01:23:48;100713.56;;;9.18;97.48
33795;BME280;51430;52.242;21.118;2022-10-31T01:26:19;100711.44;;;9.16;97.75
33795;BME280;51430;52.242;21.118;2022-10-31T01:29:08;100709.21;;;9.15;97.97
33795;BME280;51430;52.242;21.118;2022-10-31T01:31:39;100718.70;;;9.11;98.14
33795;BME280;51430;52.242;21.118;2022-10-31T01:34:07;100719.30;;;9.13;98.35
33795;BME280;51430;52.242;21.118;2022-10-31T01:36:37;100719.98;;;9.16;98.48
33795;BME280;51430;52.242;21.118;2022-10-31T01:39:11;100716.39;;;9.15;98.62
33795;BME280;51430;52.242;21.118;2022-10-31T01:41:49;100715.67;;;9.13;98.42
33795;BME280;51430;52.242;21.118;2022-10-31T01:46:54;100720.48;;;9.13;98.54
33795;BME280;51430;52.242;21.118;2022-10-31T01:52:13;100725.61;;;9.12;98.65
33795;BME280;51430;52.242;21.118;2022-10-31T01:54:48;100728.39;;;9.07;99.01
33795;BME280;51430;52.242;21.118;2022-10-31T01:57:20;100730.67;;;9.07;99.20
33795;BME280;51430;52.242;21.118;2022-10-31T01:59:51;100730.34;;;9.06;98.90
33795;BME280;51430;52.242;21.118;2022-10-31T02:02:21;100726.61;;;9.04;98.88
33795;BME280;51430;52.242;21.118;2022-10-31T02:04:52;100727.13;;;9.02;98.77
33795;BME280;51430;52.242;21.118;2022-10-31T02:07:27;100719.49;;;8.99;98.62
33795;BME280;51430;52.242;21.118;2022-10-31T02:09:58;100718.55;;;8.95;98.58
33795;BME280;51430;52.242;21.118;2022-10-31T02:12:30;100718.16;;;8.90;99.06
33795;BME280;51430;52.242;21.118;2022-10-31T02:15:00;100720.11;;;8.90;99.56
33795;BME280;51430;52.242;21.118;2022-10-31T02:17:29;100717.91;;;8.89;99.80
33795;BME280;51430;52.242;21.118;2022-10-31T02:23:08;100719.08;;;8.84;99.81
33795;BME280;51430;52.242;21.118;2022-10-31T02:32:01;100722.98;;;8.60;99.55
33795;BME280;51430;52.242;21.118;2022-10-31T02:34:37;100721.13;;;8.57;99.56
33795;BME280;51430;52.242;21.118;2022-10-31T02:37:10;100715.89;;;8.57;99.50
33795;BME280;51430;52.242;21.118;2022-10-31T02:39:44;100720.19;;;8.55;99.59
33795;BME280;51430;52.242;21.118;2022-10-31T02:42:29;100723.90;;;8.52;99.97
33795;BME280;51430;52.242;21.118;2022-10-31T02:45:32;100724.56;;;8.49;100.00
33795;BME280;51430;52.242;21.118;2022-10-31T02:48:17;100723.30;;;8.42;100.00
33795;BME280;51430;52.242;21.118;2022-10-31T02:50:56;100723.71;;;8.43;100.00
33795;BME280;51430;52.242;21.118;2022-10-31T02:53:26;100723.20;;;8.46;100.00
33795;BME280;51430;52.242;21.118;2022-10-31T02:58:36;100727.30;;;8.50;100.00
33795;BME280;51430;52.242;21.118;2022-10-31T03:03:59;100725.95;;;8.49;100.00
33795;BME280;51430;52.242;21.118;2022-10-31T03:12:39;100734.20;;;8.42;100.00
33795;BME280;51430;52.242;21.118;2022-10-31T03:15:23;100736.80;;;8.42;100.00
33795;BME280;51430;52.242;21.118;2022-10-31T03:18:21;100737.08;;;8.43;100.00
33795;BME280;51430;52.242;21.118;2022-10-31T03:21:01;100744.51;;;8.41;100.00
33795;BME280;51430;52.242;21.118;2022-10-31T03:23:40;100742.67;;;8.43;100.00
33795;BME280;51430;52.242;21.118;2022-10-31T03:26:11;100745.63;;;8.46;100.00
33795;BME280;51430;52.242;21.118;2022-10-31T03:28:50;100748.57;;;8.46;100.00
33795;BME280;51430;52.242;21.118;2022-10-31T03:31:26;100754.31;;;8.45;100.00
33795;BME280;51430;52.242;21.118;2022-10-31T03:33:59;100755.00;;;8.46;100.00
33795;BME280;51430;52.242;21.118;2022-10-31T03:36:31;100760.13;;;8.47;100.00
33795;BME280;51430;52.242;21.118;2022-10-31T03:39:04;100760.62;;;8.48;100.00
33795;BME280;51430;52.242;21.118;2022-10-31T03:41:38;100759.61;;;8.47;100.00
33795;BME280;51430;52.242;21.118;2022-10-31T03:44:12;100757.03;;;8.47;100.00
33795;BME280;51430;52.242;21.118;2022-10-31T03:46:43;100758.33;;;8.45;100.00
33795;BME280;51430;52.242;21.118;2022-10-31T03:49:12;100763.04;;;8.42;100.00
33795;BME280;51430;52.242;21.118;2022-10-31T03:51:50;100765.35;;;8.41;100.00
33795;BME280;51430;52.242;21.118;2022-10-31T03:54:35;100764.96;;;8.36;100.00
33795;BME280;51430;52.242;21.118;2022-10-31T03:57:15;100764.46;;;8.30;100.00
33795;BME280;51430;52.242;21.118;2022-10-31T04:00:10;100770.27;;;8.32;100.00
33795;BME280;51430;52.242;21.118;2022-10-31T04:02:44;100769.02;;;8.27;100.00
33795;BME280;51430;52.242;21.118;2022-10-31T04:05:15;100765.48;;;8.22;100.00
33795;BME280;51430;52.242;21.118;2022-10-31T04:07:47;100768.34;;;8.20;100.00
33795;BME280;51430;52.242;21.118;2022-10-31T04:10:16;100769.27;;;8.13;100.00
33795;BME280;51430;52.242;21.118;2022-10-31T04:12:49;100765.85;;;8.07;100.00
33795;BME280;51430;52.242;21.118;2022-10-31T04:15:20;100768.58;;;8.05;100.00
33795;BME280;51430;52.242;21.118;2022-10-31T04:17:52;100768.90;;;8.05;100.00
33795;BME280;51430;52.242;21.118;2022-10-31T04:20:34;100767.85;;;7.99;100.00
33795;BME280;51430;52.242;21.118;2022-10-31T04:23:04;100765.84;;;7.98;100.00
33795;BME280;51430;52.242;21.118;2022-10-31T04:25:32;100768.35;;;8.00;100.00
33795;BME280;51430;52.242;21.118;2022-10-31T04:28:00;100768.20;;;7.96;100.00
33795;BME280;51430;52.242;21.118;2022-10-31T04:30:29;100765.88;;;7.88;100.00
33795;BME280;51430;52.242;21.118;2022-10-31T04:32:57;100769.58;;;7.84;100.00
33795;BME280;51430;52.242;21.118;2022-10-31T04:35:26;100772.83;;;7.82;100.00
33795;BME280;51430;52.242;21.118;2022-10-31T04:37:54;100772.60;;;7.80;100.00
33795;BME280;51430;52.242;21.118;2022-10-31T04:40:22;100771.00;;;7.71;100.00
33795;BME280;51430;52.242;21.118;2022-10-31T04:42:51;100771.66;;;7.72;100.00
33795;BME280;51430;52.242;21.118;2022-10-31T04:45:19;100771.49;;;7.72;100.00
33795;BME280;51430;52.242;21.118;2022-10-31T04:47:48;100776.98;;;7.73;100.00
33795;BME280;51430;52.242;21.118;2022-10-31T04:50:16;100779.95;;;7.73;100.00
33795;BME280;51430;52.242;21.118;2022-10-31T04:52:45;100781.89;;;7.75;100.00
33795;BME280;51430;52.242;21.118;2022-10-31T04:55:14;100780.60;;;7.77;100.00
33795;BME280;51430;52.242;21.118;2022-10-31T04:57:43;100779.54;;;7.77;100.00
33795;BME280;51430;52.242;21.118;2022-10-31T05:00:14;100777.29;;;7.80;100.00
33795;BME280;51430;52.242;21.118;2022-10-31T05:02:51;100779.20;;;7.80;100.00
33795;BME280;51430;52.242;21.118;2022-10-31T05:05:23;100776.80;;;7.76;100.00
33795;BME280;51430;52.242;21.118;2022-10-31T05:07:54;100779.05;;;7.76;100.00
33795;BME280;51430;52.242;21.118;2022-10-31T05:10:25;100780.98;;;7.76;100.00
33795;BME280;51430;52.242;21.118;2022-10-31T05:12:58;100786.77;;;7.75;100.00
33795;BME280;51430;52.242;21.118;2022-10-31T05:15:29;100786.02;;;7.73;100.00
33795;BME280;51430;52.242;21.118;2022-10-31T05:17:57;100791.55;;;7.74;100.00
33795;BME280;51430;52.242;21.118;2022-10-31T05:20:29;100791.23;;;7.76;100.00
33795;BME280;51430;52.242;21.118;2022-10-31T05:22:58;100797.36;;;7.78;100.00
33795;BME280;51430;52.242;21.118;2022-10-31T05:25:28;100799.73;;;7.82;100.00
33795;BME280;51430;52.242;21.118;2022-10-31T05:27:57;100797.36;;;7.81;100.00
33795;BME280;51430;52.242;21.118;2022-10-31T05:30:29;100793.99;;;7.79;100.00
33795;BME280;51430;52.242;21.118;2022-10-31T05:32:58;100800.80;;;7.79;100.00
33795;BME280;51430;52.242;21.118;2022-10-31T05:35:32;100798.91;;;7.78;100.00
33795;BME280;51430;52.242;21.118;2022-10-31T05:38:00;100805.41;;;7.76;100.00
33795;BME280;51430;52.242;21.118;2022-10-31T05:40:29;100804.61;;;7.79;100.00
33795;BME280;51430;52.242;21.118;2022-10-31T05:42:57;100802.83;;;7.82;100.00
33795;BME280;51430;52.242;21.118;2022-10-31T05:45:29;100805.36;;;7.87;100.00
33795;BME280;51430;52.242;21.118;2022-10-31T05:47:58;100806.17;;;7.88;100.00
33795;BME280;51430;52.242;21.118;2022-10-31T05:50:30;100811.98;;;7.89;100.00
33795;BME280;51430;52.242;21.118;2022-10-31T05:53:01;100813.02;;;7.92;100.00
33795;BME280;51430;52.242;21.118;2022-10-31T05:55:31;100813.39;;;7.95;100.00
33795;BME280;51430;52.242;21.118;2022-10-31T05:57:59;100814.05;;;8.02;100.00
33795;BME280;51430;52.242;21.118;2022-10-31T06:00:28;100811.55;;;8.09;100.00
33795;BME280;51430;52.242;21.118;2022-10-31T06:03:02;100813.36;;;8.17;100.00
33795;BME280;51430;52.242;21.118;2022-10-31T06:05:33;100814.01;;;8.24;100.00
33795;BME280;51430;52.242;21.118;2022-10-31T06:08:01;100813.45;;;8.33;100.00
33795;BME280;51430;52.242;21.118;2022-10-31T06:10:30;100817.35;;;8.43;100.00
33795;BME280;51430;52.242;21.118;2022-10-31T06:12:58;100815.44;;;8.52;100.00
33795;BME280;51430;52.242;21.118;2022-10-31T06:15:26;100812.27;;;8.58;100.00
33795;BME280;51430;52.242;21.118;2022-10-31T06:18:03;100811.80;;;8.63;100.00
33795;BME280;51430;52.242;21.118;2022-10-31T06:20:33;100812.52;;;8.72;99.97
33795;BME280;51430;52.242;21.118;2022-10-31T06:23:02;100813.55;;;8.80;99.62
33795;BME280;51430;52.242;21.118;2022-10-31T06:25:31;100816.40;;;8.93;99.09
33795;BME280;51430;52.242;21.118;2022-10-31T06:28:01;100817.52;;;8.97;98.86
33795;BME280;51430;52.242;21.118;2022-10-31T06:30:29;100820.58;;;9.09;98.79
33795;BME280;51430;52.242;21.118;2022-10-31T06:33:04;100825.45;;;9.23;98.58
33795;BME280;51430;52.242;21.118;2022-10-31T06:35:32;100828.94;;;9.39;98.59
33795;BME280;51430;52.242;21.118;2022-10-31T06:38:00;100830.42;;;9.24;97.42
33795;BME280;51430;52.242;21.118;2022-10-31T06:40:29;100833.34;;;9.27;97.00
33795;BME280;51430;52.242;21.118;2022-10-31T06:42:59;100834.76;;;9.19;96.01
33795;BME280;51430;52.242;21.118;2022-10-31T06:45:28;100837.63;;;9.06;95.62
33795;BME280;51430;52.242;21.118;2022-10-31T06:47:56;100838.80;;;8.96;95.67
33795;BME280;51430;52.242;21.118;2022-10-31T06:50:45;100838.59;;;8.88;95.83
33795;BME280;51430;52.242;21.118;2022-10-31T06:53:14;100839.80;;;9.00;96.30
33795;BME280;51430;52.242;21.118;2022-10-31T06:55:42;100842.63;;;9.02;96.46
33795;BME280;51430;52.242;21.118;2022-10-31T06:58:10;100840.51;;;8.85;97.06
33795;BME280;51430;52.242;21.118;2022-10-31T07:00:39;100840.02;;;8.73;97.92
33795;BME280;51430;52.242;21.118;2022-10-31T07:03:11;100843.54;;;8.81;98.46
33795;BME280;51430;52.242;21.118;2022-10-31T07:05:39;100842.25;;;8.77;98.68
33795;BME280;51430;52.242;21.118;2022-10-31T07:08:10;100845.00;;;8.86;98.87
33795;BME280;51430;52.242;21.118;2022-10-31T07:10:40;100839.25;;;8.80;98.94
33795;BME280;51430;52.242;21.118;2022-10-31T07:13:14;100836.95;;;8.90;99.18
33795;BME280;51430;52.242;21.118;2022-10-31T07:15:43;100844.36;;;9.13;98.67
33795;BME280;51430;52.242;21.118;2022-10-31T07:18:12;100849.98;;;9.26;97.95
33795;BME280;51430;52.242;21.118;2022-10-31T07:20:40;100848.75;;;9.45;97.46
33795;BME280;51430;52.242;21.118;2022-10-31T07:23:10;100845.65;;;9.61;96.56
33795;BME280;51430;52.242;21.118;2022-10-31T07:25:39;100849.64;;;9.72;95.99
33795;BME280;51430;52.242;21.118;2022-10-31T07:28:08;100848.87;;;10.10;96.03
33795;BME280;51430;52.242;21.118;2022-10-31T07:30:37;100847.20;;;10.91;94.22
33795;BME280;51430;52.242;21.118;2022-10-31T07:33:06;100856.31;;;11.51;91.37
33795;BME280;51430;52.242;21.118;2022-10-31T07:35:34;100863.76;;;11.79;88.81
33795;BME280;51430;52.242;21.118;2022-10-31T07:38:10;100864.19;;;11.97;87.19
33795;BME280;51430;52.242;21.118;2022-10-31T07:40:39;100863.38;;;12.27;86.17
33795;BME280;51430;52.242;21.118;2022-10-31T07:43:09;100864.31;;;12.69;84.75
33795;BME280;51430;52.242;21.118;2022-10-31T07:45:41;100863.55;;;12.81;83.51
33795;BME280;51430;52.242;21.118;2022-10-31T07:48:09;100864.59;;;13.11;82.26
33795;BME280;51430;52.242;21.118;2022-10-31T07:50:38;100864.29;;;13.39;81.61
33795;BME280;51430;52.242;21.118;2022-10-31T07:53:08;100863.13;;;13.71;80.10
33795;BME280;51430;52.242;21.118;2022-10-31T07:55:37;100858.94;;;14.00;79.03
33795;BME280;51430;52.242;21.118;2022-10-31T07:58:10;100862.02;;;13.92;77.65
33795;BME280;51430;52.242;21.118;2022-10-31T08:00:41;100860.39;;;14.06;78.13
33795;BME280;51430;52.242;21.118;2022-10-31T08:03:15;100859.14;;;14.52;77.46
33795;BME280;51430;52.242;21.118;2022-10-31T08:05:45;100855.64;;;14.95;75.94
33795;BME280;51430;52.242;21.118;2022-10-31T08:08:14;100858.48;;;15.31;74.73
33795;BME280;51430;52.242;21.118;2022-10-31T08:10:42;100863.14;;;15.68;73.29
33795;BME280;51430;52.242;21.118;2022-10-31T08:13:13;100864.31;;;15.64;72.58
33795;BME280;51430;52.242;21.118;2022-10-31T08:15:41;100864.79;;;15.77;72.71
33795;BME280;51430;52.242;21.118;2022-10-31T08:18:12;100867.02;;;15.91;72.06
33795;BME280;51430;52.242;21.118;2022-10-31T08:20:43;100867.69;;;16.22;71.56
33795;BME280;51430;52.242;21.118;2022-10-31T08:23:12;100869.98;;;16.53;70.66
33795;BME280;51430;52.242;21.118;2022-10-31T08:25:41;100872.48;;;16.73;69.72
33795;BME280;51430;52.242;21.118;2022-10-31T08:28:11;100878.80;;;16.73;69.20
33795;BME280;51430;52.242;21.118;2022-10-31T08:30:40;100878.10;;;16.97;68.29
33795;BME280;51430;52.242;21.118;2022-10-31T08:35:39;100879.21;;;17.15;67.96
33795;BME280;51430;52.242;21.118;2022-10-31T08:38:09;100883.04;;;17.28;67.32
33795;BME280;51430;52.242;21.118;2022-10-31T08:40:38;100886.10;;;17.46;67.23
33795;BME280;51430;52.242;21.118;2022-10-31T08:43:15;100894.16;;;17.32;67.20
33795;BME280;51430;52.242;21.118;2022-10-31T08:45:53;100893.47;;;17.42;67.63
33795;BME280;51430;52.242;21.118;2022-10-31T08:48:23;100899.83;;;17.74;66.41
33795;BME280;51430;52.242;21.118;2022-10-31T08:50:51;100900.99;;;17.85;66.45
33795;BME280;51430;52.242;21.118;2022-10-31T08:53:19;100904.27;;;18.05;65.69
33795;BME280;51430;52.242;21.118;2022-10-31T08:55:48;100904.09;;;18.00;65.71
33795;BME280;51430;52.242;21.118;2022-10-31T08:58:18;100904.55;;;18.13;65.56
33795;BME280;51430;52.242;21.118;2022-10-31T09:00:49;100902.31;;;18.60;64.02
33795;BME280;51430;52.242;21.118;2022-10-31T09:03:21;100897.02;;;18.72;63.62
33795;BME280;51430;52.242;21.118;2022-10-31T09:05:50;100899.39;;;18.61;63.29
33795;BME280;51430;52.242;21.118;2022-10-31T09:08:22;100901.10;;;18.61;63.95
33795;BME280;51430;52.242;21.118;2022-10-31T09:10:51;100897.77;;;18.63;63.55
33795;BME280;51430;52.242;21.118;2022-10-31T09:13:20;100892.57;;;19.22;62.66
33795;BME280;51430;52.242;21.118;2022-10-31T09:15:53;100895.92;;;19.41;61.40
33795;BME280;51430;52.242;21.118;2022-10-31T09:18:22;100902.58;;;19.93;59.71
33795;BME280;51430;52.242;21.118;2022-10-31T09:20:50;100900.35;;;20.07;59.12
33795;BME280;51430;52.242;21.118;2022-10-31T09:23:22;100904.69;;;20.28;58.55
33795;BME280;51430;52.242;21.118;2022-10-31T09:25:52;100906.42;;;20.46;57.83
33795;BME280;51430;52.242;21.118;2022-10-31T09:28:22;100907.88;;;20.50;58.00
33795;BME280;51430;52.242;21.118;2022-10-31T09:30:52;100909.14;;;20.52;57.69
33795;BME280;51430;52.242;21.118;2022-10-31T09:33:21;100905.50;;;20.52;58.04
33795;BME280;51430;52.242;21.118;2022-10-31T09:35:49;100909.02;;;21.21;56.49
33795;BME280;51430;52.242;21.118;2022-10-31T09:38:19;100911.92;;;21.61;55.07
33795;BME280;51430;52.242;21.118;2022-10-31T09:40:57;100913.20;;;21.77;54.91
33795;BME280;51430;52.242;21.118;2022-10-31T09:43:35;100919.59;;;22.10;51.69
33795;BME280;51430;52.242;21.118;2022-10-31T09:49:02;100912.77;;;22.62;50.38
33795;BME280;51430;52.242;21.118;2022-10-31T09:51:38;100915.45;;;22.12;51.62
33795;BME280;51430;52.242;21.118;2022-10-31T09:54:42;100915.44;;;22.26;51.44
33795;BME280;51430;52.242;21.118;2022-10-31T09:57:16;100914.45;;;22.36;51.11
33795;BME280;51430;52.242;21.118;2022-10-31T09:59:48;100912.39;;;22.62;50.45
33795;BME280;51430;52.242;21.118;2022-10-31T10:05:02;100919.73;;;23.14;49.17
33795;BME280;51430;52.242;21.118;2022-10-31T10:10:05;100913.22;;;24.06;47.13
33795;BME280;51430;52.242;21.118;2022-10-31T10:24:12;100907.27;;;24.96;44.74
33795;BME280;51430;52.242;21.118;2022-10-31T10:26:53;100903.58;;;25.24;44.23
33795;BME280;51430;52.242;21.118;2022-10-31T10:29:50;100904.70;;;25.12;44.24
33795;BME280;51430;52.242;21.118;2022-10-31T10:32:28;100901.21;;;25.37;43.60
33795;BME280;51430;52.242;21.118;2022-10-31T10:35:04;100895.77;;;25.01;44.08
33795;BME280;51430;52.242;21.118;2022-10-31T10:37:39;100895.63;;;24.65;44.14
33795;BME280;51430;52.242;21.118;2022-10-31T10:40:25;100899.10;;;24.88;43.98
33795;BME280;51430;52.242;21.118;2022-10-31T10:49:37;100893.42;;;24.58;43.30
33795;BME280;51430;52.242;21.118;2022-10-31T10:52:19;100891.33;;;24.85;43.47
33795;BME280;51430;52.242;21.118;2022-10-31T10:58:14;100895.45;;;25.19;41.99
33795;BME280;51430;52.242;21.118;2022-10-31T11:00:44;100894.97;;;25.46;41.54
33795;BME280;51430;52.242;21.118;2022-10-31T11:03:16;100901.15;;;25.12;41.49
33795;BME280;51430;52.242;21.118;2022-10-31T11:05:51;100899.84;;;25.24;41.39
33795;BME280;51430;52.242;21.118;2022-10-31T11:08:35;100897.41;;;25.56;41.33
33795;BME280;51430;52.242;21.118;2022-10-31T11:11:17;100893.14;;;25.44;41.63
33795;BME280;51430;52.242;21.118;2022-10-31T11:13:49;100890.60;;;25.26;41.99
33795;BME280;51430;52.242;21.118;2022-10-31T11:16:28;100893.30;;;25.34;41.81
33795;BME280;51430;52.242;21.118;2022-10-31T11:19:08;100892.55;;;24.99;42.35
33795;BME280;51430;52.242;21.118;2022-10-31T11:21:43;100887.95;;;25.08;41.81
33795;BME280;51430;52.242;21.118;2022-10-31T11:24:41;100885.94;;;25.14;41.89
33795;BME280;51430;52.242;21.118;2022-10-31T11:27:20;100886.20;;;25.63;41.68
33795;BME280;51430;52.242;21.118;2022-10-31T11:29:50;100889.52;;;25.64;40.95
33795;BME280;51430;52.242;21.118;2022-10-31T11:32:27;100886.94;;;25.66;41.19
33795;BME280;51430;52.242;21.118;2022-10-31T11:34:59;100892.61;;;26.36;40.43
33795;BME280;51430;52.242;21.118;2022-10-31T11:37:35;100891.29;;;26.40;40.43
33795;BME280;51430;52.242;21.118;2022-10-31T11:40:24;100886.63;;;26.75;39.91
33795;BME280;51430;52.242;21.118;2022-10-31T11:42:56;100887.24;;;26.70;40.00
33795;BME280;51430;52.242;21.118;2022-10-31T11:47:55;100881.39;;;26.43;40.16
33795;BME280;51430;52.242;21.118;2022-10-31T11:50:35;100878.71;;;25.55;41.41
33795;BME280;51430;52.242;21.118;2022-10-31T11:53:15;100875.83;;;25.26;42.51
33795;BME280;51430;52.242;21.118;2022-10-31T11:55:45;100875.61;;;25.49;42.42
33795;BME280;51430;52.242;21.118;2022-10-31T11:58:24;100875.29;;;24.81;43.98
33795;BME280;51430;52.242;21.118;2022-10-31T12:00:56;100878.60;;;24.96;43.87
33795;BME280;51430;52.242;21.118;2022-10-31T12:03:54;100880.81;;;25.98;42.69
33795;BME280;51430;52.242;21.118;2022-10-31T12:06:36;100882.91;;;25.68;42.24
33795;BME280;51430;52.242;21.118;2022-10-31T12:09:20;100882.92;;;26.00;41.72
33795;BME280;51430;52.242;21.118;2022-10-31T12:14:50;100874.88;;;25.78;42.06
33795;BME280;51430;52.242;21.118;2022-10-31T12:17:44;100872.77;;;25.96;41.82
33795;BME280;51430;52.242;21.118;2022-10-31T12:20:20;100870.56;;;25.13;43.38
33795;BME280;51430;52.242;21.118;2022-10-31T12:29:02;100865.41;;;26.41;41.43
33795;BME280;51430;52.242;21.118;2022-10-31T12:40:17;100859.05;;;27.03;40.43
33795;BME280;51430;52.242;21.118;2022-10-31T12:46:02;100857.89;;;26.15;42.33
33795;BME280;51430;52.242;21.118;2022-10-31T12:59:44;100856.70;;;25.41;42.97
33795;BME280;51430;52.242;21.118;2022-10-31T13:02:18;100856.55;;;25.57;42.85
33795;BME280;51430;52.242;21.118;2022-10-31T13:04:59;100861.70;;;26.01;41.81
33795;BME280;51430;52.242;21.118;2022-10-31T13:07:46;100861.69;;;25.96;42.18
33795;BME280;51430;52.242;21.118;2022-10-31T13:10:24;100859.02;;;25.74;42.51
33795;BME280;51430;52.242;21.118;2022-10-31T13:12:58;100854.11;;;25.62;43.10
33795;BME280;51430;52.242;21.118;2022-10-31T13:15:40;100853.09;;;26.12;42.25
33795;BME280;51430;52.242;21.118;2022-10-31T13:18:30;100846.95;;;26.60;41.43
33795;BME280;51430;52.242;21.118;2022-10-31T13:21:09;100848.78;;;26.70;41.37
33795;BME280;51430;52.242;21.118;2022-10-31T13:23:43;100851.67;;;27.18;40.65
33795;BME280;51430;52.242;21.118;2022-10-31T13:26:43;100851.55;;;27.74;39.38
33795;BME280;51430;52.242;21.118;2022-10-31T13:29:52;100854.27;;;28.11;38.81
33795;BME280;51430;52.242;21.118;2022-10-31T13:32:21;100859.18;;;28.19;38.72
33795;BME280;51430;52.242;21.118;2022-10-31T13:34:56;100853.33;;;28.05;38.92
33795;BME280;51430;52.242;21.118;2022-10-31T13:37:42;100857.95;;;27.80;39.21
33795;BME280;51430;52.242;21.118;2022-10-31T13:40:54;100856.41;;;27.53;40.10
33795;BME280;51430;52.242;21.118;2022-10-31T13:43:59;100851.59;;;27.78;39.68
33795;BME280;51430;52.242;21.118;2022-10-31T13:49:00;100852.95;;;26.08;42.99
33795;BME280;51430;52.242;21.118;2022-10-31T13:51:33;100853.48;;;26.32;42.79
33795;BME280;51430;52.242;21.118;2022-10-31T13:54:23;100850.35;;;26.32;42.81
33795;BME280;51430;52.242;21.118;2022-10-31T13:56:52;100848.38;;;25.23;44.79
33795;BME280;51430;52.242;21.118;2022-10-31T13:59:22;100843.08;;;24.74;46.02
33795;BME280;51430;52.242;21.118;2022-10-31T14:01:56;100843.55;;;24.04;47.73
33795;BME280;51430;52.242;21.118;2022-10-31T14:04:43;100839.70;;;24.07;47.65
33795;BME280;51430;52.242;21.118;2022-10-31T14:07:15;100832.84;;;23.44;49.41
33795;BME280;51430;52.242;21.118;2022-10-31T14:09:52;100829.89;;;23.29;49.87
33795;BME280;51430;52.242;21.118;2022-10-31T14:12:29;100825.46;;;23.18;50.44
33795;BME280;51430;52.242;21.118;2022-10-31T14:15:22;100831.17;;;22.74;51.42
33795;BME280;51430;52.242;21.118;2022-10-31T14:18:03;100828.96;;;22.30;52.63
33795;BME280;51430;52.242;21.118;2022-10-31T14:20:43;100827.77;;;21.54;54.66
33795;BME280;51430;52.242;21.118;2022-10-31T14:25:53;100823.77;;;20.93;56.46
33795;BME280;51430;52.242;21.118;2022-10-31T14:28:32;100818.80;;;20.66;57.19
33795;BME280;51430;52.242;21.118;2022-10-31T14:31:01;100818.25;;;20.47;57.25
33795;BME280;51430;52.242;21.118;2022-10-31T14:33:30;100819.18;;;19.82;59.08
33795;BME280;51430;52.242;21.118;2022-10-31T14:36:12;100819.95;;;19.10;61.74
33795;BME280;51430;52.242;21.118;2022-10-31T14:39:05;100814.92;;;18.72;63.38
33795;BME280;51430;52.242;21.118;2022-10-31T14:44:37;100816.42;;;18.15;66.80
33795;BME280;51430;52.242;21.118;2022-10-31T14:52:53;100819.83;;;17.61;69.97
33795;BME280;51430;52.242;21.118;2022-10-31T14:55:23;100816.98;;;17.44;70.75
33795;BME280;51430;52.242;21.118;2022-10-31T14:58:01;100821.21;;;17.42;70.82
33795;BME280;51430;52.242;21.118;2022-10-31T15:00:32;100821.54;;;17.15;72.46
33795;BME280;51430;52.242;21.118;2022-10-31T15:03:34;100821.64;;;16.81;74.51